Camden, Maine
Current Conditions -  °F | °C
As of 9:35 PM on Sunday 25 Jan 2015 (Local Time) from KRKD Reporting Station
Clear Clear  
Wind Chill: -5°   Ceiling: Unl
Heat Index: 10°   Visibility: 10mi
Dew Point: -4°   Wind: 14mph
Humidity: 52%   Direction: 290°WNW
Pressure: 29.92"   Gusts: 23mph
Location:  44.21°N, 69.06°W
Report Text: KRKD 260235Z AUTO 29012G20KT 10SM CLR M12/M20 A2992 RMK AO1
Loading
Personal Weather Stations






























Interactive Weather Map New forecast layout! Learn more

10-Day Weather Forecast

Advertisements
Track Severe Weather on mobile